createdAt,value
2023-03-28T00:01:21.489Z,7.71
2023-03-28T00:03:52.893Z,7.69
2023-03-28T00:06:22.200Z,7.66
2023-03-28T00:08:51.417Z,7.64
2023-03-28T00:11:23.414Z,7.60
2023-03-28T00:13:58.435Z,7.57
2023-03-28T00:16:33.161Z,7.52
2023-03-28T00:19:08.454Z,7.48
2023-03-28T00:21:39.182Z,7.45
2023-03-28T00:24:14.281Z,7.42
2023-03-28T00:26:44.869Z,7.39
2023-03-28T00:29:16.014Z,7.35
2023-03-28T00:31:44.997Z,7.33
2023-03-28T00:34:13.612Z,7.31
2023-03-28T00:36:43.082Z,7.30
2023-03-28T00:39:14.754Z,7.29
2023-03-28T00:41:44.338Z,7.28
2023-03-28T00:44:48.967Z,7.27
2023-03-28T00:47:37.051Z,7.28
2023-03-28T00:50:24.745Z,7.29
2023-03-28T00:52:56.072Z,7.30
2023-03-28T00:55:37.369Z,7.31
2023-03-28T00:58:08.509Z,7.32
2023-03-28T01:00:38.816Z,7.33
2023-03-28T01:03:13.965Z,7.35
2023-03-28T01:05:43.886Z,7.34
2023-03-28T01:08:24.549Z,7.33
2023-03-28T01:10:53.466Z,7.32
2023-03-28T01:13:28.766Z,7.33
2023-03-28T01:15:59.462Z,7.32
2023-03-28T01:18:30.445Z,7.30
2023-03-28T01:21:05.413Z,7.28
2023-03-28T01:24:11.832Z,7.26
2023-03-28T01:26:58.940Z,7.25
2023-03-28T01:29:39.577Z,7.23
2023-03-28T01:32:27.234Z,7.21
2023-03-28T01:35:15.989Z,7.21
2023-03-28T01:37:46.126Z,7.21
2023-03-28T01:40:40.684Z,7.22
2023-03-28T01:43:29.383Z,7.24
2023-03-28T01:46:05.848Z,7.27
2023-03-28T01:48:56.598Z,7.28
2023-03-28T01:51:44.571Z,7.30
2023-03-28T01:54:58.888Z,7.30
2023-03-28T01:58:13.372Z,7.30
2023-03-28T02:00:46.382Z,7.30
2023-03-28T02:03:33.170Z,7.31
2023-03-28T02:06:15.024Z,7.33
2023-03-28T02:08:44.832Z,7.34
2023-03-28T02:11:32.856Z,7.36
2023-03-28T02:14:31.136Z,7.38
2023-03-28T02:17:23.338Z,7.39
2023-03-28T02:20:15.124Z,7.39
2023-03-28T02:23:09.087Z,7.38
2023-03-28T02:25:58.473Z,7.38
2023-03-28T02:28:57.296Z,7.37
2023-03-28T02:31:38.858Z,7.34
2023-03-28T02:34:09.444Z,7.31
2023-03-28T02:36:42.428Z,7.29
2023-03-28T02:39:35.734Z,7.28
2023-03-28T02:42:23.084Z,7.26
2023-03-28T02:45:04.335Z,7.23
2023-03-28T02:47:38.792Z,7.18
2023-03-28T02:50:38.454Z,7.14
2023-03-28T02:53:27.358Z,7.12
2023-03-28T02:56:15.196Z,7.09
2023-03-28T02:59:05.084Z,7.07
2023-03-28T03:01:34.223Z,7.05
2023-03-28T03:04:03.258Z,7.03
2023-03-28T03:06:35.419Z,7.01
2023-03-28T03:09:06.128Z,7.01
2023-03-28T03:11:35.095Z,7.00
2023-03-28T03:14:06.980Z,6.98
2023-03-28T03:16:43.932Z,6.98
2023-03-28T03:19:13.662Z,6.97
2023-03-28T03:21:42.356Z,6.97
2023-03-28T03:24:14.582Z,6.96
2023-03-28T03:26:45.172Z,6.96
2023-03-28T03:29:18.964Z,6.94
2023-03-28T03:31:47.868Z,6.91
2023-03-28T03:34:37.014Z,6.88
2023-03-28T03:37:05.583Z,6.87
2023-03-28T03:39:38.366Z,6.86
2023-03-28T03:42:11.761Z,6.86
2023-03-28T03:44:41.613Z,6.85
2023-03-28T03:47:10.810Z,6.86
2023-03-28T03:49:40.295Z,6.85
2023-03-28T03:52:10.586Z,6.85
2023-03-28T03:54:39.655Z,6.84
2023-03-28T03:57:08.623Z,6.85
2023-03-28T03:59:37.787Z,6.86
2023-03-28T04:02:10.914Z,6.87
2023-03-28T04:04:48.038Z,6.89
2023-03-28T04:07:22.298Z,6.88
2023-03-28T04:09:52.420Z,6.88
2023-03-28T04:12:21.166Z,6.88
2023-03-28T04:14:54.997Z,6.89
2023-03-28T04:17:41.823Z,6.88
2023-03-28T04:20:22.114Z,6.88
2023-03-28T04:23:06.160Z,6.88
2023-03-28T04:25:36.379Z,6.89
2023-03-28T04:28:09.841Z,6.90
2023-03-28T04:30:43.741Z,6.91
2023-03-28T04:33:34.124Z,6.95
2023-03-28T04:36:06.188Z,6.98
2023-03-28T04:38:38.017Z,7.00
2023-03-28T04:41:33.555Z,7.04
2023-03-28T04:44:31.514Z,7.11
2023-03-28T04:47:10.379Z,7.20
2023-03-28T04:49:40.405Z,7.26
2023-03-28T04:52:09.677Z,7.30
2023-03-28T04:54:39.103Z,7.35
2023-03-28T04:57:19.545Z,7.38
2023-03-28T04:59:53.398Z,7.41
2023-03-28T05:02:42.620Z,7.47
2023-03-28T05:05:16.090Z,7.53
2023-03-28T05:07:44.876Z,7.59
2023-03-28T05:10:14.297Z,7.65
2023-03-28T05:12:46.946Z,7.70
2023-03-28T05:15:22.318Z,7.78
2023-03-28T05:18:04.842Z,7.85
2023-03-28T05:20:38.675Z,7.94
2023-03-28T05:23:08.701Z,8.02
2023-03-28T05:25:43.317Z,8.11
2023-03-28T05:28:11.987Z,8.22
2023-03-28T05:30:49.886Z,8.36
2023-03-28T05:33:22.777Z,8.51
2023-03-28T05:35:51.013Z,8.65
2023-03-28T05:38:22.135Z,8.75
2023-03-28T05:40:54.516Z,8.83
2023-03-28T05:43:23.145Z,8.92
2023-03-28T05:45:52.689Z,9.03
2023-03-28T05:48:24.041Z,9.16
2023-03-28T05:50:56.712Z,9.28
2023-03-28T05:53:25.700Z,9.37
2023-03-28T05:55:54.316Z,9.45
2023-03-28T05:58:23.035Z,9.52
2023-03-28T06:00:53.004Z,9.55
2023-03-28T06:03:23.785Z,9.53
2023-03-28T06:05:52.703Z,9.49
2023-03-28T06:08:27.536Z,9.44
2023-03-28T06:11:03.984Z,9.42
2023-03-28T06:13:53.791Z,9.45
2023-03-28T06:16:30.051Z,9.49
2023-03-28T06:19:14.360Z,9.44
2023-03-28T06:21:50.086Z,9.32
2023-03-28T06:24:22.477Z,9.24
2023-03-28T06:26:51.762Z,9.11
2023-03-28T06:29:25.852Z,8.97
2023-03-28T06:32:02.997Z,8.86
2023-03-28T06:34:31.969Z,8.75
2023-03-28T06:37:03.093Z,8.66
2023-03-28T06:39:57.972Z,8.61
2023-03-28T06:42:29.491Z,8.60
2023-03-28T06:45:05.159Z,8.60
2023-03-28T06:47:42.700Z,8.65
2023-03-28T06:50:12.251Z,8.77
2023-03-28T06:52:52.263Z,8.89
2023-03-28T06:55:22.978Z,9.00
2023-03-28T06:57:51.783Z,9.12
2023-03-28T07:00:25.532Z,9.25
2023-03-28T07:03:20.765Z,9.33
2023-03-28T07:05:53.042Z,9.42
2023-03-28T07:08:22.396Z,9.50
2023-03-28T07:10:51.563Z,9.55
2023-03-28T07:13:22.863Z,9.60
2023-03-28T07:16:06.705Z,9.67
2023-03-28T07:18:35.571Z,9.67
2023-03-28T07:21:10.724Z,9.60
2023-03-28T07:23:40.038Z,9.53
2023-03-28T07:26:11.352Z,9.45
2023-03-28T07:28:42.407Z,9.36
2023-03-28T07:31:12.477Z,9.31
2023-03-28T07:33:42.655Z,9.27
2023-03-28T07:36:16.974Z,9.26
2023-03-28T07:38:49.256Z,9.24
2023-03-28T07:41:19.690Z,9.21
2023-03-28T07:43:49.013Z,9.19
2023-03-28T07:46:21.187Z,9.14
2023-03-28T07:48:50.790Z,9.09
2023-03-28T07:51:21.405Z,9.10
2023-03-28T07:53:50.105Z,9.16
2023-03-28T07:56:19.088Z,9.24
2023-03-28T07:58:58.407Z,9.30
2023-03-28T08:01:27.547Z,9.30
2023-03-28T08:04:03.726Z,9.19
2023-03-28T08:06:52.461Z,9.04
2023-03-28T08:09:22.779Z,8.90
2023-03-28T08:12:03.184Z,8.78
2023-03-28T08:14:31.802Z,8.70
2023-03-28T08:17:00.869Z,8.70
2023-03-28T08:19:31.671Z,8.77
2023-03-28T08:22:12.702Z,8.90
2023-03-28T08:24:52.636Z,9.02
2023-03-28T08:27:28.957Z,9.09
2023-03-28T08:30:00.896Z,9.12
2023-03-28T08:32:31.443Z,9.13
2023-03-28T08:35:03.910Z,9.08
2023-03-28T08:37:33.925Z,9.01
2023-03-28T08:40:07.724Z,8.92
2023-03-28T08:42:57.737Z,8.83
2023-03-28T08:45:42.745Z,8.73
2023-03-28T08:48:21.820Z,8.66
2023-03-28T08:50:54.604Z,8.64
2023-03-28T08:53:34.590Z,8.68
2023-03-28T08:56:07.201Z,8.74
2023-03-28T08:58:52.762Z,8.79
2023-03-28T09:01:23.774Z,8.82
2023-03-28T09:03:52.943Z,8.85
2023-03-28T09:06:29.718Z,8.93
2023-03-28T09:09:05.104Z,9.03
2023-03-28T09:11:58.966Z,9.13
2023-03-28T09:14:28.234Z,9.22
2023-03-28T09:17:21.938Z,9.31
2023-03-28T09:20:11.597Z,9.35
2023-03-28T09:23:26.261Z,9.28
2023-03-28T09:26:36.152Z,9.16
2023-03-28T09:29:12.115Z,9.08
2023-03-28T09:31:48.948Z,9.01
2023-03-28T09:34:27.739Z,8.98
2023-03-28T09:37:30.765Z,8.98
2023-03-28T09:40:01.942Z,8.94
2023-03-28T09:42:48.007Z,8.91
2023-03-28T09:45:50.372Z,8.91
2023-03-28T09:48:50.100Z,8.96
2023-03-28T09:51:22.408Z,9.01
2023-03-28T09:53:52.749Z,9.06
2023-03-28T09:56:33.853Z,9.08
2023-03-28T09:59:28.362Z,9.06
2023-03-28T10:02:01.031Z,9.03
2023-03-28T10:04:39.958Z,9.00
2023-03-28T10:07:42.849Z,9.01
2023-03-28T10:10:29.913Z,9.07
2023-03-28T10:13:05.529Z,9.12
2023-03-28T10:15:47.059Z,9.14
2023-03-28T10:18:35.013Z,9.15
2023-03-28T10:21:15.517Z,9.13
2023-03-28T10:23:49.780Z,9.11
2023-03-28T10:26:23.506Z,9.08
2023-03-28T10:28:54.993Z,9.04
2023-03-28T10:31:29.871Z,9.02
2023-03-28T10:34:26.014Z,9.01
2023-03-28T10:37:34.833Z,9.04
2023-03-28T10:40:30.473Z,9.05
2023-03-28T10:43:18.204Z,9.04
2023-03-28T10:46:29.666Z,9.04
2023-03-28T10:49:25.330Z,9.02
2023-03-28T10:52:12.414Z,9.01
2023-03-28T10:54:47.005Z,9.00
2023-03-28T10:57:48.449Z,8.98
2023-03-28T11:00:28.496Z,8.96
2023-03-28T11:03:12.278Z,8.95
2023-03-28T11:06:08.892Z,8.94
2023-03-28T11:08:49.910Z,8.93
2023-03-28T11:11:54.503Z,8.93
2023-03-28T11:14:34.062Z,8.95
2023-03-28T11:17:16.135Z,8.96
2023-03-28T11:20:07.757Z,8.97
2023-03-28T11:23:06.488Z,8.99
2023-03-28T11:25:50.553Z,8.99
2023-03-28T11:29:08.665Z,9.00
2023-03-28T11:31:41.428Z,9.01
2023-03-28T11:34:13.367Z,8.96
2023-03-28T11:36:51.454Z,8.89
2023-03-28T11:39:46.172Z,8.82
2023-03-28T11:42:21.661Z,8.71
2023-03-28T11:45:06.089Z,8.62
2023-03-28T11:47:38.650Z,8.51
2023-03-28T11:50:15.434Z,8.43
2023-03-28T11:53:18.775Z,8.37
2023-03-28T11:56:14.421Z,8.32
2023-03-28T11:59:01.200Z,8.29
2023-03-28T12:01:32.716Z,8.27
2023-03-28T12:04:10.176Z,8.26
2023-03-28T12:07:02.343Z,8.25
2023-03-28T12:09:51.071Z,8.22
2023-03-28T12:12:24.439Z,8.20
2023-03-28T12:15:05.734Z,8.17
2023-03-28T12:17:50.977Z,8.14
2023-03-28T12:20:45.431Z,8.11
2023-03-28T12:23:47.638Z,8.08
2023-03-28T12:26:59.797Z,8.05
2023-03-28T12:29:47.727Z,8.03
2023-03-28T12:32:29.868Z,8.03
2023-03-28T12:35:05.884Z,8.03
2023-03-28T12:38:13.130Z,8.02
2023-03-28T12:40:55.729Z,8.04
2023-03-28T12:43:49.373Z,8.06
2023-03-28T12:46:46.725Z,8.06
2023-03-28T12:49:45.697Z,8.08
2023-03-28T12:52:24.618Z,8.11
2023-03-28T12:55:01.059Z,8.18
2023-03-28T12:57:41.501Z,8.24
2023-03-28T13:00:55.222Z,8.27
2023-03-28T13:03:42.381Z,8.31
2023-03-28T13:06:50.680Z,8.31
2023-03-28T13:09:39.213Z,8.32
2023-03-28T13:12:35.389Z,8.31
2023-03-28T13:15:14.122Z,8.30
2023-03-28T13:18:07.882Z,8.29
2023-03-28T13:20:36.536Z,8.30
2023-03-28T13:23:08.221Z,8.30
2023-03-28T13:25:38.653Z,8.31
2023-03-28T13:28:10.760Z,8.32
2023-03-28T13:30:44.763Z,8.33
2023-03-28T13:33:17.344Z,8.33
2023-03-28T13:35:47.743Z,8.34
2023-03-28T13:38:29.864Z,8.35
2023-03-28T13:41:00.968Z,8.37
2023-03-28T13:43:47.172Z,8.39
2023-03-28T13:46:31.864Z,8.39
2023-03-28T13:49:11.394Z,8.38
2023-03-28T13:51:55.157Z,8.40
2023-03-28T13:54:24.395Z,8.43
2023-03-28T13:56:53.206Z,8.43
2023-03-28T13:59:23.722Z,8.44
2023-03-28T14:01:56.501Z,8.44
2023-03-28T14:04:27.386Z,8.42
2023-03-28T14:06:57.009Z,8.42
2023-03-28T14:09:28.836Z,8.40
2023-03-28T14:12:08.673Z,8.40
2023-03-28T14:14:39.222Z,8.39
2023-03-28T14:17:11.654Z,8.39
2023-03-28T14:19:43.142Z,8.40
2023-03-28T14:22:32.761Z,8.38
2023-03-28T14:25:02.721Z,8.38
2023-03-28T14:27:45.636Z,8.39
2023-03-28T14:30:26.168Z,8.39
2023-03-28T14:33:00.611Z,8.38
2023-03-28T14:35:30.884Z,8.38
2023-03-28T14:38:01.525Z,8.39
2023-03-28T14:40:35.359Z,8.38
2023-03-28T14:43:06.549Z,8.35
2023-03-28T14:45:39.992Z,8.35
2023-03-28T14:48:16.391Z,8.35
2023-03-28T14:50:45.029Z,8.34
2023-03-28T14:53:21.774Z,8.34
2023-03-28T14:55:51.208Z,8.33
2023-03-28T14:58:19.863Z,8.33
2023-03-28T15:01:00.128Z,8.33
2023-03-28T15:03:41.709Z,8.32
2023-03-28T15:06:16.770Z,8.30
2023-03-28T15:08:46.045Z,8.30
2023-03-28T15:11:20.311Z,8.31
2023-03-28T15:13:50.528Z,8.32
2023-03-28T15:16:23.412Z,8.32
2023-03-28T15:19:09.603Z,8.31
2023-03-28T15:21:40.509Z,8.32
2023-03-28T15:24:13.912Z,8.30
2023-03-28T15:26:44.412Z,8.30
2023-03-28T15:29:16.755Z,8.28
2023-03-28T15:31:46.541Z,8.27
2023-03-28T15:34:23.113Z,8.24
2023-03-28T15:36:56.270Z,8.22
2023-03-28T15:39:37.979Z,8.21
2023-03-28T15:42:20.077Z,8.19
2023-03-28T15:44:57.566Z,8.18
2023-03-28T15:47:29.722Z,8.18
2023-03-28T15:50:01.921Z,8.15
2023-03-28T15:52:31.946Z,8.10
2023-03-28T15:55:01.303Z,8.04
2023-03-28T15:57:30.834Z,7.99
2023-03-28T16:00:01.335Z,7.94
2023-03-28T16:02:38.607Z,7.91
2023-03-28T16:05:15.815Z,7.86
2023-03-28T16:07:48.759Z,7.88
2023-03-28T16:10:21.992Z,7.85
2023-03-28T16:13:18.652Z,7.80
2023-03-28T16:16:06.168Z,7.75
2023-03-28T16:18:57.401Z,7.71
2023-03-28T16:21:26.001Z,7.66
2023-03-28T16:23:54.137Z,7.63
2023-03-28T16:26:22.744Z,7.61
2023-03-28T16:28:50.952Z,7.58
2023-03-28T16:31:26.423Z,7.56
2023-03-28T16:33:55.574Z,7.53
2023-03-28T16:36:24.283Z,7.50
2023-03-28T16:38:55.383Z,7.47
2023-03-28T16:41:25.157Z,7.43
2023-03-28T16:43:56.868Z,7.38
2023-03-28T16:46:25.670Z,7.29
2023-03-28T16:48:58.918Z,7.20
2023-03-28T16:51:27.654Z,7.11
2023-03-28T16:53:56.216Z,7.05
2023-03-28T16:56:27.752Z,7.01
2023-03-28T16:58:56.574Z,6.95
2023-03-28T17:01:25.691Z,6.85
2023-03-28T17:03:55.928Z,6.76
2023-03-28T17:06:25.328Z,6.69
2023-03-28T17:08:54.849Z,6.61
2023-03-28T17:11:24.607Z,6.53
2023-03-28T17:13:54.748Z,6.45
2023-03-28T17:16:23.962Z,6.40
2023-03-28T17:18:53.948Z,6.35
2023-03-28T17:21:23.725Z,6.30
2023-03-28T17:23:52.944Z,6.26
2023-03-28T17:26:21.765Z,6.22
2023-03-28T17:28:51.918Z,6.18
2023-03-28T17:31:21.591Z,6.13
2023-03-28T17:33:53.781Z,6.09
2023-03-28T17:36:25.352Z,6.05
2023-03-28T17:38:58.118Z,6.00
2023-03-28T17:41:28.710Z,5.96
2023-03-28T17:43:58.692Z,5.93
2023-03-28T17:46:28.318Z,5.90
2023-03-28T17:48:57.562Z,5.87
2023-03-28T17:51:27.503Z,5.83
2023-03-28T17:53:56.957Z,5.78
2023-03-28T17:56:29.952Z,5.73
2023-03-28T17:59:00.236Z,5.63
2023-03-28T18:01:30.997Z,5.54
2023-03-28T18:04:02.009Z,5.47
2023-03-28T18:06:50.743Z,5.40
2023-03-28T18:09:21.793Z,5.35
2023-03-28T18:11:55.230Z,5.32
2023-03-28T18:14:26.091Z,5.26
2023-03-28T18:16:59.087Z,5.19
2023-03-28T18:19:28.302Z,5.13
2023-03-28T18:21:58.211Z,5.07
2023-03-28T18:24:27.645Z,5.01
2023-03-28T18:26:57.653Z,4.97
2023-03-28T18:29:27.160Z,4.95
2023-03-28T18:31:56.594Z,4.92
2023-03-28T18:34:26.287Z,4.89
2023-03-28T18:36:56.446Z,4.84
2023-03-28T18:39:27.741Z,4.79
2023-03-28T18:41:58.722Z,4.75
2023-03-28T18:44:28.743Z,4.71
2023-03-28T18:46:58.806Z,4.70
2023-03-28T18:49:29.395Z,4.67
2023-03-28T18:52:06.002Z,4.60
2023-03-28T18:54:37.035Z,4.51
2023-03-28T18:57:06.038Z,4.46
2023-03-28T18:59:38.210Z,4.43
2023-03-28T19:02:16.499Z,4.38
2023-03-28T19:04:47.989Z,4.31
2023-03-28T19:07:19.337Z,4.24
2023-03-28T19:09:56.410Z,4.18
2023-03-28T19:12:28.209Z,4.13
2023-03-28T19:14:57.862Z,4.08
2023-03-28T19:17:27.520Z,4.03
2023-03-28T19:19:56.571Z,3.98
2023-03-28T19:22:26.522Z,3.94
2023-03-28T19:24:56.192Z,3.89
2023-03-28T19:27:25.158Z,3.82
2023-03-28T19:29:54.188Z,3.73
2023-03-28T19:32:30.815Z,3.65
2023-03-28T19:34:59.586Z,3.54
2023-03-28T19:37:28.180Z,3.45
2023-03-28T19:39:59.487Z,3.37
2023-03-28T19:42:28.251Z,3.30
2023-03-28T19:44:57.213Z,3.24
2023-03-28T19:47:26.459Z,3.20
2023-03-28T19:49:56.436Z,3.15
2023-03-28T19:52:25.251Z,3.10
2023-03-28T19:54:57.021Z,3.07
2023-03-28T19:57:25.736Z,3.04
2023-03-28T19:59:54.659Z,3.00
2023-03-28T20:02:23.461Z,2.96
2023-03-28T20:04:52.370Z,2.95
2023-03-28T20:07:21.494Z,2.94
2023-03-28T20:09:50.823Z,2.93
2023-03-28T20:12:19.573Z,2.90
2023-03-28T20:14:48.203Z,2.86
2023-03-28T20:17:19.216Z,2.82
2023-03-28T20:19:51.727Z,2.76
2023-03-28T20:22:24.635Z,2.71
2023-03-28T20:24:53.656Z,2.67
2023-03-28T20:27:24.868Z,2.66
2023-03-28T20:29:56.328Z,2.63
2023-03-28T20:32:25.013Z,2.59
2023-03-28T20:34:54.086Z,2.58
2023-03-28T20:37:23.623Z,2.54
2023-03-28T20:39:53.516Z,2.52
2023-03-28T20:42:22.330Z,2.49
2023-03-28T20:44:51.707Z,2.48
2023-03-28T20:47:24.382Z,2.46
2023-03-28T20:49:59.332Z,2.43
2023-03-28T20:52:28.873Z,2.41
2023-03-28T20:55:02.458Z,2.39
2023-03-28T20:57:49.945Z,2.37
2023-03-28T21:00:20.036Z,2.36
2023-03-28T21:02:54.168Z,2.37
2023-03-28T21:05:24.156Z,2.36
2023-03-28T21:07:55.779Z,2.32
2023-03-28T21:10:24.789Z,2.28
2023-03-28T21:12:53.654Z,2.22
2023-03-28T21:15:22.414Z,2.19
2023-03-28T21:17:53.822Z,2.17
2023-03-28T21:20:22.791Z,2.16
2023-03-28T21:22:53.634Z,2.14
2023-03-28T21:25:22.665Z,2.12
2023-03-28T21:27:57.630Z,2.10
2023-03-28T21:30:27.506Z,2.09
2023-03-28T21:33:02.203Z,2.07
2023-03-28T21:35:32.337Z,2.04
2023-03-28T21:38:01.811Z,2.02
2023-03-28T21:40:31.351Z,2.01
2023-03-28T21:43:00.186Z,2.00
2023-03-28T21:45:29.579Z,1.99
2023-03-28T21:47:59.539Z,1.98
2023-03-28T21:50:31.934Z,1.96
2023-03-28T21:53:01.009Z,1.93
2023-03-28T21:55:30.925Z,1.90
2023-03-28T21:57:59.749Z,1.89
2023-03-28T22:00:38.629Z,1.88
2023-03-28T22:03:07.359Z,1.87
2023-03-28T22:05:43.065Z,1.85
2023-03-28T22:08:14.823Z,1.83
2023-03-28T22:10:46.567Z,1.82
2023-03-28T22:13:15.225Z,1.81
2023-03-28T22:15:44.409Z,1.82
2023-03-28T22:18:13.484Z,1.81
2023-03-28T22:20:44.022Z,1.80
2023-03-28T22:23:15.257Z,1.77
2023-03-28T22:25:43.714Z,1.74
2023-03-28T22:28:12.821Z,1.73
2023-03-28T22:30:41.795Z,1.72
2023-03-28T22:33:13.650Z,1.72
2023-03-28T22:35:42.573Z,1.71
2023-03-28T22:38:14.342Z,1.70
2023-03-28T22:40:43.268Z,1.67
2023-03-28T22:43:11.922Z,1.66
2023-03-28T22:45:43.318Z,1.65
2023-03-28T22:48:14.697Z,1.64
2023-03-28T22:50:47.514Z,1.64
2023-03-28T22:53:16.485Z,1.61
2023-03-28T22:55:44.838Z,1.57
2023-03-28T22:58:13.649Z,1.55
2023-03-28T23:00:43.916Z,1.55
2023-03-28T23:03:12.414Z,1.53
2023-03-28T23:05:41.092Z,1.50
2023-03-28T23:08:10.062Z,1.48
2023-03-28T23:10:38.181Z,1.45
2023-03-28T23:13:06.913Z,1.41
2023-03-28T23:15:35.979Z,1.37
2023-03-28T23:18:04.622Z,1.33
2023-03-28T23:20:33.038Z,1.30
2023-03-28T23:23:01.790Z,1.29
2023-03-28T23:25:31.194Z,1.27
2023-03-28T23:27:59.283Z,1.23
2023-03-28T23:30:33.191Z,1.21
2023-03-28T23:33:02.308Z,1.19
2023-03-28T23:35:31.776Z,1.18
2023-03-28T23:38:01.160Z,1.17
2023-03-28T23:40:30.178Z,1.15
2023-03-28T23:42:58.891Z,1.13
2023-03-28T23:45:27.805Z,1.11
2023-03-28T23:47:56.557Z,1.08
2023-03-28T23:50:25.274Z,1.04
2023-03-28T23:52:54.202Z,1.02
2023-03-28T23:55:26.964Z,1.01
2023-03-28T23:57:57.044Z,0.99
